createdAt,value
2022-09-15T00:00:05.512Z,23.70
2022-09-15T00:01:05.547Z,29.50
2022-09-15T00:02:05.652Z,35.10
2022-09-15T00:03:05.543Z,33.50
2022-09-15T00:04:05.480Z,38.40
2022-09-15T00:05:05.476Z,36.30
2022-09-15T00:06:05.467Z,34.70
2022-09-15T00:07:05.477Z,23.70
2022-09-15T00:08:05.467Z,33.70
2022-09-15T00:09:05.490Z,37.30
2022-09-15T00:10:05.439Z,35.70
2022-09-15T00:11:05.441Z,34.40
2022-09-15T00:12:05.438Z,33.00
2022-09-15T00:13:05.447Z,36.50
2022-09-15T00:14:05.427Z,32.30
2022-09-15T00:15:05.423Z,32.80
2022-09-15T00:16:05.399Z,34.50
2022-09-15T00:17:05.456Z,33.80
2022-09-15T00:18:05.412Z,30.50
2022-09-15T00:19:05.385Z,31.50
2022-09-15T00:20:05.381Z,32.40
2022-09-15T00:21:05.383Z,36.30
2022-09-15T00:22:05.371Z,31.20
2022-09-15T00:23:05.412Z,26.00
2022-09-15T00:24:05.353Z,30.90
2022-09-15T00:25:05.351Z,37.20
2022-09-15T00:26:05.355Z,33.50
2022-09-15T00:27:05.343Z,31.60
2022-09-15T00:28:05.327Z,24.30
2022-09-15T00:29:05.342Z,23.60
2022-09-15T00:30:05.313Z,22.90
2022-09-15T00:31:05.381Z,28.20
2022-09-15T00:32:05.299Z,20.80
2022-09-15T00:33:05.297Z,21.90
2022-09-15T00:34:05.287Z,23.90
2022-09-15T00:35:05.279Z,25.70
2022-09-15T00:36:05.275Z,28.80
2022-09-15T00:37:05.272Z,25.20
2022-09-15T00:38:05.275Z,36.30
2022-09-15T00:39:05.253Z,39.40
2022-09-15T00:40:05.307Z,44.90
2022-09-15T00:41:05.256Z,50.30
2022-09-15T00:42:05.239Z,47.40
2022-09-15T00:43:05.234Z,42.00
2022-09-15T00:44:05.251Z,40.90
2022-09-15T00:45:05.235Z,37.00
2022-09-15T00:46:05.251Z,47.60
2022-09-15T00:47:18.661Z,43.20
2022-09-15T00:48:07.190Z,40.20
2022-09-15T00:49:05.183Z,33.00
2022-09-15T00:50:05.232Z,33.70
2022-09-15T00:51:05.183Z,41.20
2022-09-15T00:52:05.167Z,31.90
2022-09-15T00:53:05.167Z,31.90
2022-09-15T00:54:05.144Z,39.40
2022-09-15T00:55:05.182Z,34.80
2022-09-15T00:56:05.158Z,36.00
2022-09-15T00:57:05.146Z,32.40
2022-09-15T00:58:05.139Z,34.30
2022-09-15T00:59:05.122Z,40.70
2022-09-15T01:00:05.120Z,29.90
2022-09-15T01:01:05.748Z,31.50
2022-09-15T01:02:05.154Z,34.20
2022-09-15T01:03:05.095Z,25.80
2022-09-15T01:04:05.105Z,22.80
2022-09-15T01:05:05.096Z,20.00
2022-09-15T01:06:05.158Z,24.00
2022-09-15T01:07:05.072Z,29.50
2022-09-15T01:08:05.074Z,29.50
2022-09-15T01:09:05.055Z,34.20
2022-09-15T01:10:05.058Z,34.90
2022-09-15T01:11:05.038Z,38.00
2022-09-15T01:12:05.040Z,31.50
2022-09-15T01:13:05.026Z,28.60
2022-09-15T01:14:05.062Z,36.80
2022-09-15T01:15:05.012Z,29.00
2022-09-15T01:16:05.037Z,29.40
2022-09-15T01:17:05.006Z,27.40
2022-09-15T01:18:05.057Z,27.60
2022-09-15T01:19:05.031Z,28.50
2022-09-15T01:20:04.987Z,30.10
2022-09-15T01:21:04.971Z,23.70
2022-09-15T01:22:04.962Z,21.30
2022-09-15T01:23:04.966Z,20.90
2022-09-15T01:24:04.952Z,23.60
2022-09-15T01:25:04.959Z,25.10
2022-09-15T01:26:04.966Z,20.20
2022-09-15T01:27:18.761Z,23.40
2022-09-15T01:28:06.995Z,25.10
2022-09-15T01:29:04.927Z,23.70
2022-09-15T01:30:04.938Z,21.00
2022-09-15T01:31:04.907Z,20.90
2022-09-15T01:32:05.004Z,19.70
2022-09-15T01:33:04.911Z,22.20
2022-09-15T01:34:04.950Z,17.70
2022-09-15T01:35:04.886Z,19.90
2022-09-15T01:36:04.895Z,18.50
2022-09-15T01:37:04.863Z,28.40
2022-09-15T01:38:04.859Z,30.30
2022-09-15T01:39:04.852Z,36.50
2022-09-15T01:40:04.875Z,40.40
2022-09-15T01:41:04.865Z,31.90
2022-09-15T01:42:04.828Z,28.70
2022-09-15T01:43:04.819Z,22.70
2022-09-15T01:44:04.816Z,30.30
2022-09-15T01:45:04.815Z,21.30
2022-09-15T01:46:04.899Z,20.40
2022-09-15T01:47:04.792Z,28.30
2022-09-15T01:48:04.796Z,33.40
2022-09-15T01:49:04.790Z,39.60
2022-09-15T01:50:04.775Z,32.50
2022-09-15T01:51:04.763Z,39.40
2022-09-15T01:52:04.771Z,32.40
2022-09-15T01:53:04.758Z,26.30
2022-09-15T01:54:04.755Z,25.60
2022-09-15T01:55:04.739Z,23.40
2022-09-15T01:56:04.735Z,26.30
2022-09-15T01:57:04.751Z,29.00
2022-09-15T01:58:04.724Z,27.20
2022-09-15T01:59:04.719Z,23.90
2022-09-15T02:00:04.719Z,30.90
2022-09-15T02:01:04.773Z,32.80
2022-09-15T02:02:04.766Z,22.60
2022-09-15T02:03:04.731Z,26.20
2022-09-15T02:04:04.687Z,29.10
2022-09-15T02:05:04.681Z,24.10
2022-09-15T02:06:04.682Z,22.50
2022-09-15T02:07:04.683Z,25.30
2022-09-15T02:08:04.663Z,24.90
2022-09-15T02:09:04.646Z,23.60
2022-09-15T02:10:04.634Z,27.80
2022-09-15T02:11:05.642Z,29.20
2022-09-15T02:12:04.642Z,22.00
2022-09-15T02:13:04.658Z,28.80
2022-09-15T02:14:04.610Z,22.10
2022-09-15T02:15:04.618Z,14.60
2022-09-15T02:16:04.652Z,15.90
2022-09-15T02:17:04.607Z,22.80
2022-09-15T02:18:04.610Z,23.50
2022-09-15T02:19:04.578Z,22.00
2022-09-15T02:20:04.584Z,23.60
2022-09-15T02:21:04.586Z,24.50
2022-09-15T02:22:04.575Z,24.80
2022-09-15T02:23:04.574Z,22.50
2022-09-15T02:24:04.574Z,18.20
2022-09-15T02:25:04.545Z,20.10
2022-09-15T02:26:04.538Z,28.10
2022-09-15T02:27:04.547Z,20.30
2022-09-15T02:28:04.547Z,22.10
2022-09-15T02:29:04.518Z,24.40
2022-09-15T02:30:04.578Z,22.10
2022-09-15T02:31:04.574Z,20.30
2022-09-15T02:32:07.280Z,18.40
2022-09-15T02:33:05.514Z,26.10
2022-09-15T02:34:04.494Z,23.30
2022-09-15T02:35:04.514Z,20.90
2022-09-15T02:36:04.470Z,25.10
2022-09-15T02:37:04.478Z,24.10
2022-09-15T02:38:04.486Z,31.40
2022-09-15T02:39:04.462Z,33.80
2022-09-15T02:40:04.540Z,29.50
2022-09-15T02:41:04.439Z,35.80
2022-09-15T02:42:04.429Z,36.00
2022-09-15T02:43:04.429Z,38.50
2022-09-15T02:44:04.441Z,35.20
2022-09-15T02:45:04.414Z,34.40
2022-09-15T02:46:04.502Z,33.40
2022-09-15T02:47:04.407Z,42.40
2022-09-15T02:48:04.402Z,36.00
2022-09-15T02:49:04.410Z,40.40
2022-09-15T02:50:04.377Z,49.10
2022-09-15T02:51:04.391Z,42.80
2022-09-15T02:52:04.381Z,41.80
2022-09-15T02:53:04.361Z,37.80
2022-09-15T02:54:04.358Z,38.20
2022-09-15T02:55:04.354Z,36.00
2022-09-15T02:56:04.345Z,40.60
2022-09-15T02:57:04.353Z,44.50
2022-09-15T02:58:04.329Z,48.70
2022-09-15T02:59:04.320Z,43.40
2022-09-15T03:00:04.317Z,36.80
2022-09-15T03:01:04.394Z,39.80
2022-09-15T03:02:04.346Z,38.70
2022-09-15T03:03:04.296Z,44.50
2022-09-15T03:04:04.301Z,43.70
2022-09-15T03:05:04.297Z,47.80
2022-09-15T03:06:04.278Z,41.20
2022-09-15T03:07:04.308Z,42.10
2022-09-15T03:08:04.272Z,49.50
2022-09-15T03:09:04.266Z,47.60
2022-09-15T03:10:04.285Z,48.00
2022-09-15T03:11:04.269Z,50.80
2022-09-15T03:12:04.273Z,48.40
2022-09-15T03:13:04.737Z,53.50
2022-09-15T03:14:04.241Z,41.80
2022-09-15T03:15:04.221Z,40.50
2022-09-15T03:16:04.272Z,48.30
2022-09-15T03:17:04.201Z,58.40
2022-09-15T03:18:04.223Z,55.30
2022-09-15T03:19:04.209Z,57.70
2022-09-15T03:20:04.254Z,56.40
2022-09-15T03:22:29.620Z,58.60
2022-09-15T03:23:30.722Z,52.80
2022-09-15T03:24:30.713Z,53.50
2022-09-15T03:25:30.742Z,46.80
2022-09-15T03:26:30.709Z,50.90
2022-09-15T03:27:30.714Z,47.00
2022-09-15T03:28:30.699Z,44.20
2022-09-15T03:29:30.690Z,61.50
2022-09-15T03:30:30.690Z,56.30
2022-09-15T03:31:30.714Z,58.20
2022-09-15T03:32:30.677Z,41.90
2022-09-15T03:33:30.644Z,53.60
2022-09-15T03:34:30.661Z,47.90
2022-09-15T03:35:30.673Z,44.40
2022-09-15T03:36:30.646Z,41.50
2022-09-15T03:37:30.633Z,42.30
2022-09-15T03:38:30.620Z,44.00
2022-09-15T03:39:30.612Z,52.20
2022-09-15T03:40:30.660Z,62.60
2022-09-15T03:41:30.634Z,55.20
2022-09-15T03:42:30.602Z,46.40
2022-09-15T03:43:30.608Z,44.40
2022-09-15T03:44:30.584Z,45.90
2022-09-15T03:45:30.631Z,41.70
2022-09-15T03:46:30.593Z,43.10
2022-09-15T03:47:30.565Z,44.50
2022-09-15T03:48:30.551Z,36.90
2022-09-15T03:49:30.551Z,44.20
2022-09-15T03:50:30.568Z,42.60
2022-09-15T03:51:30.559Z,41.20
2022-09-15T03:52:30.531Z,43.70
2022-09-15T03:53:30.518Z,36.30
2022-09-15T03:54:30.534Z,41.10
2022-09-15T03:55:30.515Z,56.20
2022-09-15T03:56:30.519Z,56.00
2022-09-15T03:57:30.527Z,54.30
2022-09-15T03:58:31.010Z,41.00
2022-09-15T03:59:31.505Z,45.00
2022-09-15T04:00:30.504Z,46.90
2022-09-15T04:01:30.638Z,46.90
2022-09-15T04:02:30.457Z,41.70
2022-09-15T04:03:30.490Z,45.70
2022-09-15T04:04:30.459Z,52.30
2022-09-15T04:05:30.436Z,56.40
2022-09-15T04:06:30.425Z,43.00
2022-09-15T04:07:31.426Z,43.40
2022-09-15T04:08:30.436Z,50.00
2022-09-15T04:09:30.435Z,53.00
2022-09-15T04:10:30.434Z,47.90
2022-09-15T04:11:30.411Z,47.50
2022-09-15T04:12:30.398Z,45.50
2022-09-15T04:13:30.387Z,46.80
2022-09-15T04:14:30.411Z,50.80
2022-09-15T04:15:30.443Z,48.20
2022-09-15T04:16:30.430Z,52.40
2022-09-15T04:17:30.378Z,63.20
2022-09-15T04:18:30.366Z,57.80
2022-09-15T04:19:30.354Z,55.10
2022-09-15T04:20:30.367Z,51.70
2022-09-15T04:21:30.357Z,58.30
2022-09-15T04:22:30.332Z,62.20
2022-09-15T04:23:30.363Z,59.50
2022-09-15T04:24:30.332Z,59.20
2022-09-15T04:25:30.331Z,55.20
2022-09-15T04:26:30.315Z,47.60
2022-09-15T04:27:30.297Z,59.50
2022-09-15T04:28:30.278Z,52.00
2022-09-15T04:29:30.307Z,50.10
2022-09-15T04:30:31.395Z,46.60
2022-09-15T04:31:30.404Z,45.20
2022-09-15T04:32:30.258Z,60.10
2022-09-15T04:33:30.266Z,45.70
2022-09-15T04:34:30.318Z,48.00
2022-09-15T04:35:30.274Z,57.90
2022-09-15T04:36:30.238Z,48.70
2022-09-15T04:37:30.233Z,53.10
2022-09-15T04:38:30.258Z,63.20
2022-09-15T04:39:30.335Z,56.00
2022-09-15T04:40:30.275Z,59.80
2022-09-15T04:41:30.193Z,47.70
2022-09-15T04:42:30.203Z,49.70
2022-09-15T04:43:30.335Z,47.40
2022-09-15T04:44:30.177Z,57.20
2022-09-15T04:45:30.304Z,50.10
2022-09-15T04:46:30.260Z,57.60
2022-09-15T04:47:30.172Z,49.70
2022-09-15T04:48:30.176Z,53.20
2022-09-15T04:49:30.167Z,113.60
2022-09-15T04:50:30.747Z,92.00
2022-09-15T04:51:30.128Z,63.80
2022-09-15T04:52:30.251Z,90.00
2022-09-15T04:53:30.127Z,121.40
2022-09-15T04:54:30.143Z,142.60
2022-09-15T04:55:30.102Z,89.40
2022-09-15T04:56:30.125Z,78.70
2022-09-15T04:57:30.086Z,69.20
2022-09-15T04:58:30.081Z,58.20
2022-09-15T04:59:30.109Z,59.30
2022-09-15T05:00:30.241Z,62.90
2022-09-15T05:01:30.063Z,63.60
2022-09-15T05:02:30.202Z,58.10
2022-09-15T05:03:30.056Z,56.80
2022-09-15T05:04:30.072Z,54.50
2022-09-15T05:05:30.035Z,58.70
2022-09-15T05:06:30.040Z,56.40
2022-09-15T05:07:30.027Z,55.70
2022-09-15T05:08:30.844Z,56.50
2022-09-15T05:09:30.042Z,51.90
2022-09-15T05:10:30.031Z,58.90
2022-09-15T05:11:30.006Z,56.20
2022-09-15T05:12:29.990Z,59.00
2022-09-15T05:13:29.991Z,130.70
2022-09-15T05:14:30.030Z,161.50
2022-09-15T05:15:29.986Z,162.00
2022-09-15T05:16:30.124Z,304.30
2022-09-15T05:17:29.956Z,282.00
2022-09-15T05:18:29.955Z,168.00
2022-09-15T05:19:29.954Z,121.20
2022-09-15T05:20:29.937Z,183.80
2022-09-15T05:21:29.969Z,172.60
2022-09-15T05:22:29.925Z,242.60
2022-09-15T05:23:29.942Z,235.90
2022-09-15T05:24:29.909Z,127.80
2022-09-15T05:25:29.909Z,129.40
2022-09-15T05:26:29.899Z,158.50
2022-09-15T05:27:29.909Z,242.90
2022-09-15T05:28:29.892Z,211.30
2022-09-15T05:29:29.880Z,188.70
2022-09-15T05:30:38.746Z,140.30
2022-09-15T05:31:31.985Z,125.20
2022-09-15T05:32:29.929Z,109.60
2022-09-15T05:33:29.859Z,122.00
2022-09-15T05:34:29.853Z,111.30
2022-09-15T05:35:29.853Z,108.90
2022-09-15T05:36:29.881Z,101.50
2022-09-15T05:37:29.824Z,101.90
2022-09-15T05:38:29.849Z,109.20
2022-09-15T05:39:29.833Z,92.80
2022-09-15T05:40:29.839Z,93.50
2022-09-15T05:41:29.806Z,116.60
2022-09-15T05:42:29.810Z,96.30
2022-09-15T05:43:29.785Z,99.10
2022-09-15T05:44:29.787Z,88.70
2022-09-15T05:45:30.816Z,90.70
2022-09-15T05:46:29.852Z,75.90
2022-09-15T05:47:29.750Z,71.00
2022-09-15T05:48:29.753Z,66.30
2022-09-15T05:49:29.821Z,76.50
2022-09-15T05:50:29.771Z,63.80
2022-09-15T05:51:29.750Z,72.00
2022-09-15T05:52:29.730Z,69.90
2022-09-15T05:53:29.710Z,65.20
2022-09-15T05:54:29.715Z,62.70
2022-09-15T05:55:29.695Z,65.70
2022-09-15T05:56:29.707Z,63.80
2022-09-15T05:57:29.726Z,61.00
2022-09-15T05:58:29.678Z,60.30
2022-09-15T05:59:29.683Z,60.90
2022-09-15T06:00:29.664Z,69.50
2022-09-15T06:01:29.751Z,58.70
2022-09-15T06:02:29.690Z,58.70
2022-09-15T06:03:31.141Z,58.40
2022-09-15T06:04:30.641Z,62.50
2022-09-15T06:05:29.646Z,61.90
2022-09-15T06:06:29.634Z,59.90
2022-09-15T06:07:29.631Z,51.90
2022-09-15T06:08:29.611Z,59.30
2022-09-15T06:09:29.618Z,52.50
2022-09-15T06:10:29.604Z,48.80
2022-09-15T06:11:30.381Z,48.80
2022-09-15T06:12:29.592Z,46.60
2022-09-15T06:13:29.587Z,45.50
2022-09-15T06:14:29.593Z,46.50
2022-09-15T06:15:29.581Z,48.80
2022-09-15T06:16:29.606Z,48.10
2022-09-15T06:17:29.555Z,45.20
2022-09-15T06:18:29.555Z,43.70
2022-09-15T06:19:29.542Z,46.10
2022-09-15T06:20:29.544Z,44.30
2022-09-15T06:21:29.596Z,40.60
2022-09-15T06:22:29.519Z,44.10
2022-09-15T06:23:29.510Z,38.80
2022-09-15T06:24:29.524Z,42.40
2022-09-15T06:25:29.510Z,41.30
2022-09-15T06:26:29.515Z,39.40
2022-09-15T06:27:29.491Z,38.90
2022-09-15T06:28:29.470Z,40.90
2022-09-15T06:29:29.481Z,41.40
2022-09-15T06:30:29.473Z,35.40
2022-09-15T06:31:29.498Z,44.30
2022-09-15T06:32:29.468Z,38.90
2022-09-15T06:33:29.551Z,38.90
2022-09-15T06:34:29.458Z,41.60
2022-09-15T06:35:29.441Z,37.40
2022-09-15T06:36:29.450Z,38.80
2022-09-15T06:37:29.482Z,40.60
2022-09-15T06:38:29.422Z,35.10
2022-09-15T06:39:29.413Z,35.80
2022-09-15T06:40:29.470Z,34.80
2022-09-15T06:41:38.159Z,33.80
2022-09-15T06:42:31.415Z,29.70
2022-09-15T06:43:29.407Z,30.30
2022-09-15T06:44:29.406Z,30.80
2022-09-15T06:45:29.367Z,30.80
2022-09-15T06:46:29.457Z,31.70
2022-09-15T06:47:29.362Z,33.00
2022-09-15T06:48:29.370Z,33.10
2022-09-15T06:49:29.351Z,28.80
2022-09-15T06:50:29.363Z,28.90
2022-09-15T06:51:29.338Z,32.90
2022-09-15T06:52:29.359Z,33.40
2022-09-15T06:53:29.342Z,28.70
2022-09-15T06:54:29.321Z,32.00
2022-09-15T06:55:30.326Z,30.10
2022-09-15T06:56:29.330Z,30.30
2022-09-15T06:57:29.305Z,26.70
2022-09-15T06:58:29.310Z,28.60
2022-09-15T06:59:29.287Z,31.20
2022-09-15T07:00:29.313Z,34.70
2022-09-15T07:01:29.274Z,28.20
2022-09-15T07:02:29.395Z,33.90
2022-09-15T07:03:29.460Z,32.10
2022-09-15T07:04:29.249Z,30.90
2022-09-15T07:05:29.270Z,31.00
2022-09-15T07:06:29.243Z,32.80
2022-09-15T07:07:29.250Z,30.10
2022-09-15T07:08:29.234Z,34.30
2022-09-15T07:09:29.222Z,27.50
2022-09-15T07:10:29.240Z,30.50
2022-09-15T07:11:29.217Z,30.60
2022-09-15T07:12:29.252Z,30.00
2022-09-15T07:13:29.197Z,31.50
2022-09-15T07:14:29.194Z,31.90
2022-09-15T07:15:29.234Z,29.70
2022-09-15T07:16:29.262Z,30.10
2022-09-15T07:17:29.173Z,29.20
2022-09-15T07:18:29.230Z,33.30
2022-09-15T07:19:29.157Z,31.40
2022-09-15T07:20:29.214Z,29.70
2022-09-15T07:21:29.163Z,27.60
2022-09-15T07:22:29.151Z,26.00
2022-09-15T07:23:29.180Z,30.20
2022-09-15T07:24:29.135Z,28.90
2022-09-15T07:25:29.139Z,28.40
2022-09-15T07:26:29.126Z,27.70
2022-09-15T07:27:29.123Z,27.60
2022-09-15T07:28:29.117Z,28.50
2022-09-15T07:29:29.108Z,27.80
2022-09-15T07:30:29.128Z,22.40
2022-09-15T07:31:29.145Z,26.60
2022-09-15T07:32:29.095Z,39.80
2022-09-15T07:33:29.087Z,57.90
2022-09-15T07:34:29.092Z,37.70
2022-09-15T07:35:29.055Z,31.80
2022-09-15T07:36:29.063Z,25.80
2022-09-15T07:37:29.062Z,31.00
2022-09-15T07:38:29.075Z,33.20
2022-09-15T07:39:29.035Z,31.40
2022-09-15T07:40:29.104Z,23.60
2022-09-15T07:41:29.042Z,34.90
2022-09-15T07:42:32.147Z,42.10
2022-09-15T07:43:31.021Z,33.60
2022-09-15T07:44:29.036Z,30.80
2022-09-15T07:45:29.061Z,60.40
2022-09-15T07:46:29.006Z,72.40
2022-09-15T07:47:28.998Z,86.30
2022-09-15T07:48:28.988Z,86.70
2022-09-15T07:49:29.022Z,74.20
2022-09-15T07:50:28.966Z,31.50
2022-09-15T07:51:28.959Z,29.10
2022-09-15T07:52:29.029Z,22.90
2022-09-15T07:53:29.002Z,22.00
2022-09-15T07:54:28.947Z,20.70
2022-09-15T07:55:29.934Z,21.80
2022-09-15T07:56:28.951Z,19.50
2022-09-15T07:57:28.942Z,21.60
2022-09-15T07:58:28.935Z,21.10
2022-09-15T07:59:28.924Z,19.40
2022-09-15T08:00:28.950Z,19.70
2022-09-15T08:01:28.954Z,20.20
2022-09-15T08:02:28.915Z,21.10
2022-09-15T08:03:28.894Z,19.50
2022-09-15T08:04:28.878Z,20.60
2022-09-15T08:05:28.902Z,17.30
2022-09-15T08:06:28.906Z,19.30
2022-09-15T08:07:28.862Z,21.90
2022-09-15T08:08:28.858Z,16.50
2022-09-15T08:09:28.879Z,19.00
2022-09-15T08:10:28.856Z,16.40
2022-09-15T08:11:28.851Z,17.80
2022-09-15T08:12:28.906Z,21.90
2022-09-15T08:13:28.827Z,19.70
2022-09-15T08:14:28.807Z,19.40
2022-09-15T08:15:28.828Z,18.80
2022-09-15T08:16:28.830Z,19.70
2022-09-15T08:17:28.829Z,18.40
2022-09-15T08:18:28.796Z,16.40
2022-09-15T08:19:28.878Z,17.10
2022-09-15T08:20:28.764Z,21.00
2022-09-15T08:21:28.787Z,18.90
2022-09-15T08:22:28.789Z,19.00
2022-09-15T08:23:28.765Z,20.60
2022-09-15T08:24:28.776Z,18.80
2022-09-15T08:25:28.757Z,18.50
2022-09-15T08:26:28.744Z,20.20
2022-09-15T08:27:28.730Z,17.20
2022-09-15T08:28:28.742Z,18.90
2022-09-15T08:29:28.980Z,20.80
2022-09-15T08:30:28.737Z,20.70
2022-09-15T08:31:28.756Z,18.80
2022-09-15T08:32:28.760Z,18.30
2022-09-15T08:33:29.444Z,18.90
2022-09-15T08:34:28.681Z,20.40
2022-09-15T08:35:28.681Z,17.40
2022-09-15T08:36:28.674Z,19.30
2022-09-15T08:37:28.675Z,18.60
2022-09-15T08:38:28.670Z,17.00
2022-09-15T08:39:28.653Z,15.90
2022-09-15T08:40:28.703Z,14.30
2022-09-15T08:41:28.659Z,16.10
2022-09-15T08:42:28.662Z,14.80
2022-09-15T08:43:28.660Z,17.10
2022-09-15T08:44:28.644Z,17.90
2022-09-15T08:45:28.629Z,16.90
2022-09-15T08:46:28.672Z,13.10
2022-09-15T08:47:28.601Z,14.00
2022-09-15T08:48:28.655Z,13.60
2022-09-15T08:49:50.069Z,14.60
2022-09-15T08:50:30.584Z,13.20
2022-09-15T08:51:28.631Z,13.30
2022-09-15T08:52:28.584Z,13.50
2022-09-15T08:53:28.565Z,13.30
2022-09-15T08:54:28.563Z,12.50
2022-09-15T08:55:28.573Z,14.00
2022-09-15T08:56:28.582Z,17.70
2022-09-15T08:57:28.538Z,13.20
2022-09-15T08:58:28.566Z,11.80
2022-09-15T08:59:28.542Z,16.50
2022-09-15T09:00:28.524Z,14.20
2022-09-15T09:01:28.618Z,13.00
2022-09-15T09:02:28.549Z,14.10
2022-09-15T09:03:28.521Z,14.10
2022-09-15T09:04:28.477Z,13.00
2022-09-15T09:05:28.546Z,14.60
2022-09-15T09:06:28.488Z,14.80
2022-09-15T09:07:28.468Z,17.80
2022-09-15T09:08:28.471Z,15.30
2022-09-15T09:09:28.472Z,12.40
2022-09-15T09:10:28.553Z,15.10
2022-09-15T09:11:28.444Z,14.40
2022-09-15T09:12:28.432Z,14.20
2022-09-15T09:13:32.035Z,15.00
2022-09-15T09:14:30.513Z,13.00
2022-09-15T09:15:28.478Z,17.20
2022-09-15T09:16:28.433Z,14.90
2022-09-15T09:17:28.406Z,16.40
2022-09-15T09:18:28.392Z,14.90
2022-09-15T09:19:32.035Z,16.50
2022-09-15T09:20:29.392Z,15.40
2022-09-15T09:21:28.377Z,16.50
2022-09-15T09:23:39.422Z,16.00
2022-09-15T09:24:40.583Z,15.00
2022-09-15T09:25:40.565Z,13.70
2022-09-15T09:26:40.527Z,14.50
2022-09-15T09:27:40.515Z,13.40
2022-09-15T09:28:40.501Z,13.20
2022-09-15T09:29:40.565Z,14.50
2022-09-15T09:30:40.534Z,16.90
2022-09-15T09:31:40.509Z,15.80
2022-09-15T09:32:40.482Z,14.20
2022-09-15T09:33:45.094Z,12.20
2022-09-15T09:34:42.491Z,13.10
2022-09-15T09:35:40.529Z,14.00
2022-09-15T09:36:40.479Z,15.40
2022-09-15T09:37:40.458Z,12.40
2022-09-15T09:38:40.465Z,11.30
2022-09-15T09:39:40.437Z,15.10
2022-09-15T09:40:40.473Z,13.60
2022-09-15T09:41:40.429Z,12.50
2022-09-15T09:42:40.424Z,11.00
2022-09-15T09:43:40.438Z,11.00
2022-09-15T09:44:40.421Z,12.70
2022-09-15T09:45:40.457Z,9.60
2022-09-15T09:46:41.348Z,9.80
2022-09-15T09:47:40.413Z,16.30
2022-09-15T09:48:40.553Z,9.30
2022-09-15T09:49:40.396Z,9.60
2022-09-15T09:50:40.389Z,9.00
2022-09-15T09:51:40.457Z,12.80
2022-09-15T09:52:40.385Z,10.80
2022-09-15T09:53:40.365Z,9.30
2022-09-15T09:54:40.485Z,10.20
2022-09-15T09:55:40.373Z,9.50
2022-09-15T09:56:40.369Z,9.20
2022-09-15T09:57:40.898Z,8.10
2022-09-15T09:58:41.321Z,9.20
2022-09-15T09:59:40.348Z,6.90
2022-09-15T10:00:40.309Z,8.40
2022-09-15T10:01:40.314Z,11.00
2022-09-15T10:02:40.334Z,9.10
2022-09-15T10:03:40.298Z,6.40
2022-09-15T10:04:40.357Z,7.00
2022-09-15T10:05:40.261Z,12.10
2022-09-15T10:06:40.272Z,7.70
2022-09-15T10:07:40.278Z,6.50
2022-09-15T10:08:40.301Z,9.60
2022-09-15T10:09:40.265Z,7.70
2022-09-15T10:10:40.229Z,8.50
2022-09-15T10:11:40.385Z,8.80
2022-09-15T10:12:40.226Z,8.40
2022-09-15T10:13:40.253Z,7.10
2022-09-15T10:14:40.241Z,8.30
2022-09-15T10:15:40.253Z,8.10
2022-09-15T10:16:40.291Z,10.40
2022-09-15T10:17:41.182Z,9.50
2022-09-15T10:18:40.252Z,8.30
2022-09-15T10:19:40.169Z,7.10
2022-09-15T10:20:40.152Z,8.70
2022-09-15T10:21:40.169Z,8.20
2022-09-15T10:22:40.181Z,9.60
2022-09-15T10:23:40.136Z,7.70
2022-09-15T10:24:40.161Z,6.50
2022-09-15T10:25:57.906Z,10.10
2022-09-15T10:26:42.117Z,11.20
2022-09-15T10:27:40.180Z,7.50
2022-09-15T10:28:40.108Z,8.50
2022-09-15T10:29:40.120Z,5.70
2022-09-15T10:30:40.100Z,7.40
2022-09-15T10:31:40.195Z,6.90
2022-09-15T10:32:41.096Z,7.40
2022-09-15T10:33:40.181Z,5.50
2022-09-15T10:34:40.111Z,5.40
2022-09-15T10:35:40.060Z,6.70
2022-09-15T10:36:40.068Z,7.40
2022-09-15T10:37:40.054Z,4.80
2022-09-15T10:38:40.052Z,5.90
2022-09-15T10:39:40.051Z,6.30
2022-09-15T10:40:40.039Z,7.20
2022-09-15T10:41:40.027Z,5.30
2022-09-15T10:42:40.029Z,5.50
2022-09-15T10:43:40.056Z,5.10
2022-09-15T10:44:40.079Z,3.30
2022-09-15T10:45:40.221Z,4.90
2022-09-15T10:46:39.988Z,4.90
2022-09-15T10:47:40.020Z,3.20
2022-09-15T10:48:39.976Z,3.00
2022-09-15T10:49:39.974Z,5.20
2022-09-15T10:50:40.983Z,4.90
2022-09-15T10:51:39.956Z,7.10
2022-09-15T10:52:39.951Z,4.70
2022-09-15T10:53:39.962Z,5.70
2022-09-15T10:54:39.938Z,6.90
2022-09-15T10:55:52.184Z,4.00
2022-09-15T10:56:41.961Z,7.10
2022-09-15T10:57:40.648Z,4.50
2022-09-15T10:58:42.278Z,4.20
2022-09-15T10:59:40.918Z,4.20
2022-09-15T11:00:40.016Z,6.60
2022-09-15T11:01:39.937Z,5.60
2022-09-15T11:02:40.019Z,5.00
2022-09-15T11:03:39.957Z,3.80
2022-09-15T11:04:39.877Z,5.60
2022-09-15T11:05:40.008Z,2.90
2022-09-15T11:06:39.911Z,3.90
2022-09-15T11:07:39.869Z,4.60
2022-09-15T11:08:39.879Z,3.20
2022-09-15T11:09:39.856Z,5.40
2022-09-15T11:10:39.851Z,2.30
2022-09-15T11:11:39.888Z,5.50
2022-09-15T11:12:39.884Z,3.70
2022-09-15T11:13:39.848Z,4.40
2022-09-15T11:14:39.835Z,3.40
2022-09-15T11:15:39.811Z,3.80
2022-09-15T11:16:39.941Z,4.00
2022-09-15T11:17:39.920Z,3.60
2022-09-15T11:18:39.891Z,3.70
2022-09-15T11:19:39.813Z,4.00
2022-09-15T11:20:39.785Z,4.10
2022-09-15T11:21:39.825Z,6.10
2022-09-15T11:22:39.784Z,4.30
2022-09-15T11:23:39.755Z,4.80
2022-09-15T11:24:39.766Z,3.40
2022-09-15T11:25:39.748Z,5.10
2022-09-15T11:26:39.757Z,5.60
2022-09-15T11:27:39.864Z,4.80
2022-09-15T11:28:39.726Z,6.70
2022-09-15T11:29:39.787Z,4.00
2022-09-15T11:30:42.446Z,4.10
2022-09-15T11:31:40.230Z,5.00
2022-09-15T11:32:39.740Z,5.00
2022-09-15T11:33:40.255Z,3.10
2022-09-15T11:34:39.774Z,10.40
2022-09-15T11:35:39.691Z,5.10
2022-09-15T11:36:39.666Z,4.10
2022-09-15T11:37:39.773Z,3.90
2022-09-15T11:38:39.674Z,3.90
2022-09-15T11:39:39.657Z,6.00
2022-09-15T11:40:39.662Z,3.90
2022-09-15T11:41:39.677Z,3.30
2022-09-15T11:42:39.641Z,3.20
2022-09-15T11:43:39.645Z,5.10
2022-09-15T11:44:39.716Z,4.00
2022-09-15T11:45:39.625Z,3.10
2022-09-15T11:46:39.635Z,3.70
2022-09-15T11:47:39.614Z,4.40
2022-09-15T11:48:39.611Z,4.30
2022-09-15T11:49:39.719Z,6.20
2022-09-15T11:50:39.664Z,3.70
2022-09-15T11:51:39.616Z,4.10
2022-09-15T11:52:39.864Z,3.70
2022-09-15T11:53:39.655Z,4.30
2022-09-15T11:54:39.560Z,2.90
2022-09-15T11:55:39.610Z,5.20
2022-09-15T11:56:39.563Z,4.50
2022-09-15T11:57:39.583Z,3.30
2022-09-15T11:58:39.555Z,2.80
2022-09-15T11:59:39.548Z,3.90
2022-09-15T12:00:39.539Z,3.70
2022-09-15T12:01:39.606Z,4.00
2022-09-15T12:02:39.551Z,4.80
2022-09-15T12:03:39.522Z,4.00
2022-09-15T12:04:39.498Z,4.10
2022-09-15T12:05:39.490Z,5.70
2022-09-15T12:06:44.779Z,2.50
2022-09-15T12:07:41.504Z,4.10
2022-09-15T12:08:39.519Z,4.90
2022-09-15T12:09:39.464Z,5.40
2022-09-15T12:10:39.458Z,3.20
2022-09-15T12:11:39.468Z,3.70
2022-09-15T12:12:39.515Z,4.30
2022-09-15T12:13:39.470Z,4.50
2022-09-15T12:14:39.442Z,4.10
2022-09-15T12:15:39.472Z,3.40
2022-09-15T12:16:39.427Z,2.60
2022-09-15T12:17:39.438Z,3.00
2022-09-15T12:18:42.712Z,5.60
2022-09-15T12:19:41.437Z,4.90
2022-09-15T12:20:39.414Z,5.00
2022-09-15T12:21:39.394Z,4.10
2022-09-15T12:22:39.423Z,3.50
2022-09-15T12:23:39.400Z,3.10
2022-09-15T12:24:39.387Z,5.90
2022-09-15T12:25:39.375Z,4.30
2022-09-15T12:26:39.375Z,4.40
2022-09-15T12:27:39.368Z,3.10
2022-09-15T12:28:39.389Z,4.60
2022-09-15T12:29:41.931Z,6.10
2022-09-15T12:30:40.339Z,3.80
2022-09-15T12:31:39.478Z,4.60
2022-09-15T12:32:39.336Z,5.20
2022-09-15T12:33:39.358Z,4.40
2022-09-15T12:34:39.332Z,4.20
2022-09-15T12:35:39.328Z,4.10
2022-09-15T12:36:39.316Z,4.50
2022-09-15T12:37:39.307Z,3.40
2022-09-15T12:38:39.291Z,5.20
2022-09-15T12:39:39.295Z,4.80
2022-09-15T12:40:39.469Z,4.80
2022-09-15T12:41:39.280Z,5.90
2022-09-15T12:42:39.276Z,3.30
2022-09-15T12:43:39.295Z,4.20
2022-09-15T12:44:39.259Z,4.60
2022-09-15T12:45:39.264Z,3.60
2022-09-15T12:46:39.339Z,5.40
2022-09-15T12:47:39.253Z,4.90
2022-09-15T12:48:39.247Z,4.10
2022-09-15T12:49:39.264Z,2.80
2022-09-15T12:50:39.220Z,2.00
2022-09-15T12:51:39.260Z,4.20
2022-09-15T12:52:39.215Z,4.70
2022-09-15T12:53:40.841Z,5.80
2022-09-15T12:54:39.228Z,3.00
2022-09-15T12:55:39.180Z,5.40
2022-09-15T12:56:39.248Z,3.00
2022-09-15T12:57:39.162Z,4.70
2022-09-15T12:58:39.179Z,8.20
2022-09-15T12:59:39.157Z,4.50